Time,TemperatureF,DewpointF,PressureIn,WindDirection,WindDirectionDegrees,WindSpeedMPH,WindSpeedGustMPH,Humidity,HourlyPrecipIn,Conditions,Clouds,dailyrainin,SoftwareType,DateUTC
2013-08-29 00:00:00,67.0,67.0,29.92,NE,40,9.0,10.0,100,-99.99,,,-99.99,,2013-08-29 04:00:00,
2013-08-29 00:45:00,67.0,67.0,29.92,NE,40,9.0,10.0,100,-99.99,,,-99.99,,2013-08-29 04:45:00,
2013-08-29 00:54:00,67.0,67.0,29.92,NE,40,9.0,10.0,100,-99.99,,,-99.99,,2013-08-29 04:54:00,
2013-08-29 01:00:00,66.0,66.0,29.93,NE,40,17.0,20.0,100,-99.99,,,-99.99,,2013-08-29 05:00:00,
2013-08-29 01:42:00,66.0,66.0,29.93,NE,40,17.0,20.0,100,-99.99,,,-99.99,,2013-08-29 05:42:00,
2013-08-29 01:52:00,66.0,66.0,29.93,NE,40,17.0,20.0,100,-99.99,,,-99.99,,2013-08-29 05:52:00,
2013-08-29 02:00:00,65.0,65.0,29.92,NE,40,21.0,23.0,100,-99.99,,,-99.99,,2013-08-29 06:00:00,
2013-08-29 02:43:00,65.0,65.0,29.92,NE,40,21.0,23.0,100,-99.99,,,-99.99,,2013-08-29 06:43:00,
2013-08-29 02:52:00,65.0,65.0,29.92,NE,40,21.0,23.0,100,-99.99,,,-99.99,,2013-08-29 06:52:00,
2013-08-29 03:00:00,65.0,65.0,29.93,NNE,30,16.0,17.0,100,-99.99,,,-99.99,,2013-08-29 07:00:00,
2013-08-29 03:42:00,65.0,65.0,29.93,NNE,30,16.0,17.0,100,-99.99,,,-99.99,,2013-08-29 07:42:00,
2013-08-29 03:53:00,65.0,65.0,29.93,NNE,30,16.0,17.0,100,-99.99,,,-99.99,,2013-08-29 07:53:00,
2013-08-29 04:00:00,67.0,67.0,29.93,NE,40,14.0,15.0,100,-99.99,,,-99.99,,2013-08-29 08:00:00,
2013-08-29 04:42:00,67.0,67.0,29.93,NE,40,14.0,15.0,100,-99.99,,,-99.99,,2013-08-29 08:42:00,
2013-08-29 04:52:00,67.0,67.0,29.93,NE,40,14.0,15.0,100,-99.99,,,-99.99,,2013-08-29 08:52:00,
2013-08-29 05:00:00,66.0,66.0,29.92,NNE,20,16.0,18.0,100,-99.99,,,-99.99,,2013-08-29 09:00:00,
2013-08-29 05:43:00,66.0,66.0,29.92,NNE,20,16.0,18.0,100,-99.99,,,-99.99,,2013-08-29 09:43:00,
2013-08-29 05:54:00,66.0,66.0,29.92,NNE,20,16.0,18.0,100,-99.99,,,-99.99,,2013-08-29 09:54:00,
2013-08-29 06:00:00,67.0,67.0,29.94,NNE,20,20.0,21.0,100,-99.99,,,-99.99,,2013-08-29 10:00:00,
2013-08-29 06:43:00,67.0,67.0,29.94,NNE,20,20.0,21.0,100,-99.99,,,-99.99,,2013-08-29 10:43:00,
2013-08-29 06:53:00,67.0,67.0,29.94,NNE,20,20.0,21.0,100,-99.99,,,-99.99,,2013-08-29 10:53:00,
2013-08-29 07:00:00,67.0,67.0,29.96,NNE,30,18.0,21.0,100,-99.99,,,-99.99,,2013-08-29 11:00:00,
2013-08-29 07:42:00,67.0,67.0,29.96,NNE,30,18.0,21.0,100,-99.99,,,-99.99,,2013-08-29 11:42:00,
2013-08-29 07:52:00,67.0,67.0,29.96,NNE,30,18.0,21.0,100,-99.99,,,-99.99,,2013-08-29 11:52:00,
2013-08-29 08:00:00,67.0,67.0,29.98,NNE,30,20.0,21.0,100,-99.99,,,-99.99,,2013-08-29 12:00:00,
2013-08-29 08:42:00,67.0,67.0,29.98,NNE,30,20.0,21.0,100,-99.99,,,-99.99,,2013-08-29 12:42:00,
2013-08-29 08:52:00,67.0,67.0,29.98,NNE,30,20.0,21.0,100,-99.99,,,-99.99,,2013-08-29 12:52:00,
2013-08-29 09:00:00,67.0,67.0,29.99,NNE,20,15.0,16.0,99,-99.99,,,-99.99,,2013-08-29 13:00:00,
2013-08-29 09:42:00,67.0,67.0,29.99,NNE,20,15.0,16.0,99,-99.99,,,-99.99,,2013-08-29 13:42:00,
2013-08-29 09:52:00,67.0,67.0,29.99,NNE,20,15.0,16.0,99,-99.99,,,-99.99,,2013-08-29 13:52:00,
2013-08-29 10:00:00,67.0,67.0,30.01,NNE,30,17.0,18.0,99,-99.99,,,-99.99,,2013-08-29 14:00:00,
2013-08-29 10:42:00,67.0,67.0,30.01,NNE,30,17.0,18.0,99,-99.99,,,-99.99,,2013-08-29 14:42:00,
2013-08-29 10:52:00,67.0,67.0,30.01,NNE,30,17.0,18.0,99,-99.99,,,-99.99,,2013-08-29 14:52:00,
2013-08-29 11:00:00,67.0,67.0,30.00,NNE,30,16.0,17.0,100,-99.99,,,-99.99,,2013-08-29 15:00:00,
2013-08-29 11:43:00,67.0,67.0,30.00,NNE,30,16.0,17.0,100,-99.99,,,-99.99,,2013-08-29 15:43:00,
2013-08-29 11:53:00,67.0,67.0,30.00,NNE,30,16.0,17.0,100,-99.99,,,-99.99,,2013-08-29 15:53:00,
2013-08-29 12:00:00,67.0,67.0,30.00,NNE,20,18.0,20.0,98,-99.99,,,-99.99,,2013-08-29 16:00:00,
2013-08-29 12:43:00,67.0,67.0,30.00,NNE,20,18.0,20.0,98,-99.99,,,-99.99,,2013-08-29 16:43:00,
2013-08-29 12:53:00,67.0,67.0,30.00,NNE,20,18.0,20.0,98,-99.99,,,-99.99,,2013-08-29 16:53:00,
2013-08-29 13:00:00,67.0,66.0,30.00,NNE,30,18.0,20.0,96,-99.99,,,-99.99,,2013-08-29 17:00:00,
2013-08-29 13:43:00,67.0,66.0,30.00,NNE,30,18.0,20.0,96,-99.99,,,-99.99,,2013-08-29 17:43:00,
2013-08-29 13:52:00,67.0,66.0,30.00,NNE,30,18.0,20.0,96,-99.99,,,-99.99,,2013-08-29 17:52:00,
2013-08-29 14:00:00,66.0,66.0,30.00,NNE,20,20.0,21.0,98,-99.99,,,-99.99,,2013-08-29 18:00:00,
2013-08-29 14:42:00,66.0,66.0,30.00,NNE,20,20.0,21.0,98,-99.99,,,-99.99,,2013-08-29 18:42:00,
2013-08-29 14:52:00,66.0,66.0,30.00,NNE,20,20.0,21.0,98,-99.99,,,-99.99,,2013-08-29 18:52:00,
2013-08-29 15:00:00,67.0,67.0,29.99,NNE,20,15.0,16.0,100,-99.99,,,-99.99,,2013-08-29 19:00:00,
2013-08-29 15:42:00,67.0,67.0,29.99,NNE,20,15.0,16.0,100,-99.99,,,-99.99,,2013-08-29 19:42:00,
2013-08-29 15:52:00,67.0,67.0,29.99,NNE,20,15.0,16.0,100,-99.99,,,-99.99,,2013-08-29 19:52:00,
2013-08-29 16:00:00,66.0,66.0,30.00,NNE,30,18.0,20.0,100,-99.99,,,-99.99,,2013-08-29 20:00:00,
2013-08-29 16:42:00,66.0,66.0,30.00,NNE,30,18.0,20.0,100,-99.99,,,-99.99,,2013-08-29 20:42:00,
2013-08-29 16:52:00,66.0,66.0,30.00,NNE,30,18.0,20.0,100,-99.99,,,-99.99,,2013-08-29 20:52:00,
2013-08-29 17:00:00,65.0,65.0,30.01,North,360,20.0,21.0,100,-99.99,,,-99.99,,2013-08-29 21:00:00,
2013-08-29 17:43:00,65.0,65.0,30.01,North,360,20.0,21.0,100,-99.99,,,-99.99,,2013-08-29 21:43:00,
2013-08-29 17:54:00,65.0,65.0,30.01,North,360,20.0,21.0,100,-99.99,,,-99.99,,2013-08-29 21:54:00,
2013-08-29 18:00:00,65.0,63.0,30.02,NNE,20,22.0,23.0,92,-99.99,,,-99.99,,2013-08-29 22:00:00,
2013-08-29 18:43:00,65.0,63.0,30.02,NNE,20,22.0,23.0,92,-99.99,,,-99.99,,2013-08-29 22:43:00,
2013-08-29 18:53:00,65.0,63.0,30.02,NNE,20,22.0,23.0,92,-99.99,,,-99.99,,2013-08-29 22:53:00,
2013-08-29 19:00:00,64.0,61.0,30.02,NNE,20,25.0,28.0,90,-99.99,,,-99.99,,2013-08-29 23:00:00,
2013-08-29 19:42:00,64.0,61.0,30.02,NNE,20,25.0,28.0,90,-99.99,,,-99.99,,2013-08-29 23:42:00,
2013-08-29 19:53:00,64.0,61.0,30.02,NNE,20,25.0,28.0,90,-99.99,,,-99.99,,2013-08-29 23:53:00,
2013-08-29 20:00:00,64.0,60.0,30.02,NNE,30,22.0,23.0,87,-99.99,,,-99.99,,2013-08-30 00:00:00,
2013-08-29 20:42:00,64.0,60.0,30.02,NNE,30,22.0,23.0,87,-99.99,,,-99.99,,2013-08-30 00:42:00,
2013-08-29 20:52:00,64.0,60.0,30.02,NNE,30,22.0,23.0,87,-99.99,,,-99.99,,2013-08-30 00:52:00,
2013-08-29 21:00:00,63.0,60.0,30.02,North,10,17.0,18.0,89,-99.99,,,-99.99,,2013-08-30 01:00:00,
2013-08-29 21:21:00,63.0,60.0,30.02,North,10,17.0,18.0,89,-99.99,,,-99.99,,2013-08-30 01:21:00,
2013-08-29 21:32:00,63.0,60.0,30.02,North,10,17.0,18.0,89,-99.99,,,-99.99,,2013-08-30 01:32:00,
2013-08-29 21:42:00,63.0,60.0,30.02,North,10,17.0,18.0,89,-99.99,,,-99.99,,2013-08-30 01:42:00,
2013-08-29 21:52:00,63.0,60.0,30.02,North,10,17.0,18.0,89,-99.99,,,-99.99,,2013-08-30 01:52:00,
2013-08-29 22:00:00,63.0,61.0,30.02,NNE,20,15.0,17.0,92,-99.99,,,-99.99,,2013-08-30 02:00:00,
2013-08-29 22:21:00,63.0,61.0,30.02,NNE,20,15.0,17.0,92,-99.99,,,-99.99,,2013-08-30 02:21:00,
2013-08-29 22:32:00,63.0,61.0,30.02,NNE,20,15.0,17.0,92,-99.99,,,-99.99,,2013-08-30 02:32:00,
2013-08-29 22:42:00,63.0,61.0,30.02,NNE,20,15.0,17.0,92,-99.99,,,-99.99,,2013-08-30 02:42:00,
2013-08-29 22:52:00,63.0,61.0,30.02,NNE,20,15.0,17.0,92,-99.99,,,-99.99,,2013-08-30 02:52:00,
2013-08-29 23:00:00,62.0,61.0,30.02,North,360,16.0,17.0,95,-99.99,,,-99.99,,2013-08-30 03:00:00,
2013-08-29 23:43:00,62.0,61.0,30.02,North,360,16.0,17.0,95,-99.99,,,-99.99,,2013-08-30 03:43:00,
2013-08-29 23:54:00,62.0,61.0,30.02,North,360,16.0,17.0,95,-99.99,,,-99.99,,2013-08-30 03:54:00,